Terminal Aerodrome Forecast
Issued by NWS Wilmington, NC

Home | Current Version | Previous Version | Text Only | Print | Product List | Glossary On
Versions: 1 2 3 4 5 6 7 8 9 10 11 12 13 14 15 16 17 18 19 20 21
438
FTUS42 KILM 262339
TAFLBT
TAF
KLBT 262339Z 2700/2724 24005KT P6SM SKC
     FM271700 24013G22KT P6SM FEW050
     FM272200 24011G20KT P6SM SCT150=

USA.gov is the U.S. government's official web portal to all federal, state and local government web resources and services.